sensor_id;sensor_type;location;lat;lon;timestamp;P1;durP1;ratioP1;P2;durP2;ratioP2
27622;SDS011;15041;45.334;5.622;2022-07-12T00:01:41;1.70;;;1.60;;
27622;SDS011;15041;45.334;5.622;2022-07-12T00:04:07;3.65;;;1.83;;
27622;SDS011;15041;45.334;5.622;2022-07-12T00:06:35;1.85;;;1.60;;
27622;SDS011;15041;45.334;5.622;2022-07-12T00:09:03;2.33;;;1.60;;
27622;SDS011;15041;45.334;5.622;2022-07-12T00:11:29;2.60;;;1.67;;
27622;SDS011;15041;45.334;5.622;2022-07-12T00:13:56;2.78;;;1.80;;
27622;SDS011;15041;45.334;5.622;2022-07-12T00:16:23;6.80;;;1.80;;
27622;SDS011;15041;45.334;5.622;2022-07-12T00:18:50;2.08;;;1.67;;
27622;SDS011;15041;45.334;5.622;2022-07-12T00:21:17;3.03;;;1.65;;
27622;SDS011;15041;45.334;5.622;2022-07-12T00:23:45;2.47;;;1.70;;
27622;SDS011;15041;45.334;5.622;2022-07-12T00:26:11;3.42;;;1.88;;
27622;SDS011;15041;45.334;5.622;2022-07-12T00:28:38;5.05;;;1.38;;
27622;SDS011;15041;45.334;5.622;2022-07-12T00:31:05;2.80;;;1.65;;
27622;SDS011;15041;45.334;5.622;2022-07-12T00:33:33;2.17;;;1.33;;
27622;SDS011;15041;45.334;5.622;2022-07-12T00:36:00;2.38;;;1.50;;
27622;SDS011;15041;45.334;5.622;2022-07-12T00:38:29;3.10;;;1.80;;
27622;SDS011;15041;45.334;5.622;2022-07-12T00:40:57;4.20;;;1.83;;
27622;SDS011;15041;45.334;5.622;2022-07-12T00:43:24;4.60;;;1.80;;
27622;SDS011;15041;45.334;5.622;2022-07-12T00:45:51;3.25;;;1.88;;
27622;SDS011;15041;45.334;5.622;2022-07-12T00:48:18;3.08;;;1.98;;
27622;SDS011;15041;45.334;5.622;2022-07-12T00:50:45;1.48;;;1.38;;
27622;SDS011;15041;45.334;5.622;2022-07-12T00:53:13;1.75;;;1.48;;
27622;SDS011;15041;45.334;5.622;2022-07-12T00:55:43;1.67;;;1.58;;
27622;SDS011;15041;45.334;5.622;2022-07-12T00:58:11;2.72;;;1.52;;
27622;SDS011;15041;45.334;5.622;2022-07-12T01:00:38;3.25;;;1.60;;
27622;SDS011;15041;45.334;5.622;2022-07-12T01:03:05;4.57;;;1.60;;
27622;SDS011;15041;45.334;5.622;2022-07-12T01:05:32;3.90;;;1.50;;
27622;SDS011;15041;45.334;5.622;2022-07-12T01:07:58;2.55;;;1.30;;
27622;SDS011;15041;45.334;5.622;2022-07-12T01:10:25;1.95;;;1.38;;
27622;SDS011;15041;45.334;5.622;2022-07-12T01:12:56;1.60;;;1.40;;
27622;SDS011;15041;45.334;5.622;2022-07-12T01:15:25;1.83;;;1.73;;
27622;SDS011;15041;45.334;5.622;2022-07-12T01:17:55;1.63;;;1.52;;
27622;SDS011;15041;45.334;5.622;2022-07-12T01:20:23;2.63;;;1.92;;
27622;SDS011;15041;45.334;5.622;2022-07-12T01:22:52;2.20;;;1.50;;
27622;SDS011;15041;45.334;5.622;2022-07-12T01:25:22;2.55;;;1.83;;
27622;SDS011;15041;45.334;5.622;2022-07-12T01:27:50;2.08;;;1.60;;
27622;SDS011;15041;45.334;5.622;2022-07-12T01:30:17;1.67;;;1.50;;
27622;SDS011;15041;45.334;5.622;2022-07-12T01:32:43;1.40;;;1.30;;
27622;SDS011;15041;45.334;5.622;2022-07-12T01:35:12;3.97;;;1.67;;
27622;SDS011;15041;45.334;5.622;2022-07-12T01:37:40;3.20;;;1.55;;
27622;SDS011;15041;45.334;5.622;2022-07-12T01:40:09;4.10;;;1.58;;
27622;SDS011;15041;45.334;5.622;2022-07-12T01:42:38;3.30;;;1.60;;
27622;SDS011;15041;45.334;5.622;2022-07-12T01:45:05;2.17;;;1.58;;
27622;SDS011;15041;45.334;5.622;2022-07-12T01:47:34;1.95;;;1.85;;
27622;SDS011;15041;45.334;5.622;2022-07-12T01:50:03;1.65;;;1.60;;
27622;SDS011;15041;45.334;5.622;2022-07-12T01:52:31;2.67;;;1.30;;
27622;SDS011;15041;45.334;5.622;2022-07-12T01:54:58;1.80;;;1.60;;
27622;SDS011;15041;45.334;5.622;2022-07-12T01:57:27;2.50;;;1.67;;
27622;SDS011;15041;45.334;5.622;2022-07-12T01:59:54;2.90;;;1.52;;
27622;SDS011;15041;45.334;5.622;2022-07-12T02:02:22;2.92;;;1.70;;
27622;SDS011;15041;45.334;5.622;2022-07-12T02:04:51;1.67;;;1.58;;
27622;SDS011;15041;45.334;5.622;2022-07-12T02:07:17;1.75;;;1.38;;
27622;SDS011;15041;45.334;5.622;2022-07-12T02:09:44;1.65;;;1.50;;
27622;SDS011;15041;45.334;5.622;2022-07-12T02:12:11;1.98;;;1.50;;
27622;SDS011;15041;45.334;5.622;2022-07-12T02:14:39;1.67;;;1.58;;
27622;SDS011;15041;45.334;5.622;2022-07-12T02:17:06;2.25;;;1.48;;
27622;SDS011;15041;45.334;5.622;2022-07-12T02:19:32;2.28;;;1.55;;
27622;SDS011;15041;45.334;5.622;2022-07-12T02:21:59;5.38;;;1.80;;
27622;SDS011;15041;45.334;5.622;2022-07-12T02:24:26;3.50;;;1.60;;
27622;SDS011;15041;45.334;5.622;2022-07-12T02:26:53;7.50;;;1.80;;
27622;SDS011;15041;45.334;5.622;2022-07-12T02:29:20;2.53;;;1.67;;
27622;SDS011;15041;45.334;5.622;2022-07-12T02:31:48;1.92;;;1.77;;
27622;SDS011;15041;45.334;5.622;2022-07-12T02:34:16;2.60;;;2.15;;
27622;SDS011;15041;45.334;5.622;2022-07-12T02:36:42;2.53;;;1.42;;
27622;SDS011;15041;45.334;5.622;2022-07-12T02:39:09;3.65;;;1.67;;
27622;SDS011;15041;45.334;5.622;2022-07-12T02:41:36;3.72;;;1.98;;
27622;SDS011;15041;45.334;5.622;2022-07-12T02:44:03;4.75;;;2.00;;
27622;SDS011;15041;45.334;5.622;2022-07-12T02:46:30;3.03;;;1.55;;
27622;SDS011;15041;45.334;5.622;2022-07-12T02:48:58;1.60;;;1.50;;
27622;SDS011;15041;45.334;5.622;2022-07-12T02:51:25;2.95;;;1.58;;
27622;SDS011;15041;45.334;5.622;2022-07-12T02:53:52;1.42;;;1.38;;
27622;SDS011;15041;45.334;5.622;2022-07-12T02:56:19;2.90;;;1.63;;
27622;SDS011;15041;45.334;5.622;2022-07-12T02:58:45;1.85;;;1.75;;
27622;SDS011;15041;45.334;5.622;2022-07-12T03:01:12;2.20;;;1.35;;
27622;SDS011;15041;45.334;5.622;2022-07-12T03:03:39;1.52;;;1.42;;
27622;SDS011;15041;45.334;5.622;2022-07-12T03:06:07;3.13;;;1.50;;
27622;SDS011;15041;45.334;5.622;2022-07-12T03:08:34;1.88;;;1.55;;
27622;SDS011;15041;45.334;5.622;2022-07-12T03:11:01;5.15;;;1.65;;
27622;SDS011;15041;45.334;5.622;2022-07-12T03:13:28;6.15;;;1.55;;
27622;SDS011;15041;45.334;5.622;2022-07-12T03:15:54;3.70;;;1.67;;
27622;SDS011;15041;45.334;5.622;2022-07-12T03:18:21;1.95;;;1.42;;
27622;SDS011;15041;45.334;5.622;2022-07-12T03:20:48;6.28;;;1.67;;
27622;SDS011;15041;45.334;5.622;2022-07-12T03:23:16;6.03;;;1.48;;
27622;SDS011;15041;45.334;5.622;2022-07-12T03:25:43;1.73;;;1.60;;
27622;SDS011;15041;45.334;5.622;2022-07-12T03:28:10;4.82;;;1.60;;
27622;SDS011;15041;45.334;5.622;2022-07-12T03:30:37;2.80;;;1.52;;
27622;SDS011;15041;45.334;5.622;2022-07-12T03:33:04;2.70;;;1.50;;
27622;SDS011;15041;45.334;5.622;2022-07-12T03:35:31;1.60;;;1.50;;
27622;SDS011;15041;45.334;5.622;2022-07-12T03:37:57;1.55;;;1.45;;
27622;SDS011;15041;45.334;5.622;2022-07-12T03:40:26;1.60;;;1.50;;
27622;SDS011;15041;45.334;5.622;2022-07-12T03:42:52;2.70;;;1.52;;
27622;SDS011;15041;45.334;5.622;2022-07-12T03:45:19;3.30;;;1.45;;
27622;SDS011;15041;45.334;5.622;2022-07-12T03:47:47;5.15;;;1.65;;
27622;SDS011;15041;45.334;5.622;2022-07-12T03:50:14;3.83;;;1.40;;
27622;SDS011;15041;45.334;5.622;2022-07-12T03:52:41;2.60;;;1.75;;
27622;SDS011;15041;45.334;5.622;2022-07-12T03:55:09;2.70;;;1.65;;
27622;SDS011;15041;45.334;5.622;2022-07-12T03:57:39;1.50;;;1.38;;
27622;SDS011;15041;45.334;5.622;2022-07-12T04:00:06;4.70;;;1.67;;
27622;SDS011;15041;45.334;5.622;2022-07-12T04:02:35;7.30;;;1.60;;
27622;SDS011;15041;45.334;5.622;2022-07-12T04:05:03;2.35;;;1.63;;
27622;SDS011;15041;45.334;5.622;2022-07-12T04:07:31;2.22;;;1.50;;
27622;SDS011;15041;45.334;5.622;2022-07-12T04:09:58;2.97;;;1.80;;
27622;SDS011;15041;45.334;5.622;2022-07-12T04:12:25;3.13;;;1.70;;
27622;SDS011;15041;45.334;5.622;2022-07-12T04:14:53;4.05;;;1.75;;
27622;SDS011;15041;45.334;5.622;2022-07-12T04:17:19;1.77;;;1.67;;
27622;SDS011;15041;45.334;5.622;2022-07-12T04:19:46;4.45;;;1.83;;
27622;SDS011;15041;45.334;5.622;2022-07-12T04:22:13;2.08;;;1.33;;
27622;SDS011;15041;45.334;5.622;2022-07-12T04:24:40;2.03;;;1.50;;
27622;SDS011;15041;45.334;5.622;2022-07-12T04:27:07;1.40;;;1.40;;
27622;SDS011;15041;45.334;5.622;2022-07-12T04:29:34;4.93;;;1.70;;
27622;SDS011;15041;45.334;5.622;2022-07-12T04:32:02;2.58;;;1.70;;
27622;SDS011;15041;45.334;5.622;2022-07-12T04:34:29;1.95;;;1.55;;
27622;SDS011;15041;45.334;5.622;2022-07-12T04:36:56;6.50;;;1.58;;
27622;SDS011;15041;45.334;5.622;2022-07-12T04:39:23;6.25;;;1.98;;
27622;SDS011;15041;45.334;5.622;2022-07-12T04:41:50;3.38;;;1.60;;
27622;SDS011;15041;45.334;5.622;2022-07-12T04:44:16;3.30;;;1.55;;
27622;SDS011;15041;45.334;5.622;2022-07-12T04:46:43;22.20;;;8.88;;
27622;SDS011;15041;45.334;5.622;2022-07-12T04:49:11;9.85;;;2.42;;
27622;SDS011;15041;45.334;5.622;2022-07-12T04:51:38;2.60;;;1.58;;
27622;SDS011;15041;45.334;5.622;2022-07-12T04:54:05;1.50;;;1.40;;
27622;SDS011;15041;45.334;5.622;2022-07-12T04:56:32;3.63;;;1.42;;
27622;SDS011;15041;45.334;5.622;2022-07-12T04:58:59;7.05;;;1.67;;
27622;SDS011;15041;45.334;5.622;2022-07-12T05:01:26;4.32;;;1.98;;
27622;SDS011;15041;45.334;5.622;2022-07-12T05:03:55;3.05;;;1.80;;
27622;SDS011;15041;45.334;5.622;2022-07-12T05:06:23;2.25;;;1.70;;
27622;SDS011;15041;45.334;5.622;2022-07-12T05:08:50;1.77;;;1.52;;
27622;SDS011;15041;45.334;5.622;2022-07-12T05:11:17;3.17;;;1.50;;
27622;SDS011;15041;45.334;5.622;2022-07-12T05:13:44;2.17;;;1.83;;
27622;SDS011;15041;45.334;5.622;2022-07-12T05:16:11;2.65;;;2.30;;
27622;SDS011;15041;45.334;5.622;2022-07-12T05:18:38;6.10;;;1.85;;
27622;SDS011;15041;45.334;5.622;2022-07-12T05:21:05;4.88;;;1.80;;
27622;SDS011;15041;45.334;5.622;2022-07-12T05:23:33;7.45;;;1.88;;
27622;SDS011;15041;45.334;5.622;2022-07-12T05:26:00;5.60;;;1.70;;
27622;SDS011;15041;45.334;5.622;2022-07-12T05:28:27;7.90;;;2.50;;
27622;SDS011;15041;45.334;5.622;2022-07-12T05:30:54;5.00;;;1.98;;
27622;SDS011;15041;45.334;5.622;2022-07-12T05:33:21;4.95;;;1.65;;
27622;SDS011;15041;45.334;5.622;2022-07-12T05:35:48;1.73;;;1.50;;
27622;SDS011;15041;45.334;5.622;2022-07-12T05:38:14;3.05;;;2.00;;
27622;SDS011;15041;45.334;5.622;2022-07-12T05:40:42;2.67;;;1.70;;
27622;SDS011;15041;45.334;5.622;2022-07-12T05:43:09;6.28;;;1.90;;
27622;SDS011;15041;45.334;5.622;2022-07-12T05:45:36;5.25;;;2.17;;
27622;SDS011;15041;45.334;5.622;2022-07-12T05:48:04;4.22;;;1.63;;
27622;SDS011;15041;45.334;5.622;2022-07-12T05:50:31;3.20;;;2.05;;
27622;SDS011;15041;45.334;5.622;2022-07-12T05:52:58;1.83;;;1.70;;
27622;SDS011;15041;45.334;5.622;2022-07-12T05:55:43;3.42;;;2.15;;
27622;SDS011;15041;45.334;5.622;2022-07-12T05:58:11;2.08;;;1.63;;
27622;SDS011;15041;45.334;5.622;2022-07-12T06:00:37;6.32;;;2.03;;
27622;SDS011;15041;45.334;5.622;2022-07-12T06:03:04;8.07;;;1.85;;
27622;SDS011;15041;45.334;5.622;2022-07-12T06:05:31;1.88;;;1.77;;
27622;SDS011;15041;45.334;5.622;2022-07-12T06:07:58;2.40;;;1.80;;
27622;SDS011;15041;45.334;5.622;2022-07-12T06:10:25;6.20;;;2.05;;
27622;SDS011;15041;45.334;5.622;2022-07-12T06:12:53;5.03;;;1.85;;
27622;SDS011;15041;45.334;5.622;2022-07-12T06:15:20;2.72;;;1.50;;
27622;SDS011;15041;45.334;5.622;2022-07-12T06:17:46;2.63;;;1.75;;
27622;SDS011;15041;45.334;5.622;2022-07-12T06:20:14;3.30;;;1.50;;
27622;SDS011;15041;45.334;5.622;2022-07-12T06:22:41;2.13;;;1.70;;
27622;SDS011;15041;45.334;5.622;2022-07-12T06:25:08;1.50;;;1.40;;
27622;SDS011;15041;45.334;5.622;2022-07-12T06:27:35;3.35;;;1.73;;
27622;SDS011;15041;45.334;5.622;2022-07-12T06:30:04;7.38;;;2.88;;
27622;SDS011;15041;45.334;5.622;2022-07-12T06:32:32;8.77;;;3.50;;
27622;SDS011;15041;45.334;5.622;2022-07-12T06:34:59;9.57;;;2.92;;
27622;SDS011;15041;45.334;5.622;2022-07-12T06:37:26;5.78;;;2.20;;
27622;SDS011;15041;45.334;5.622;2022-07-12T06:39:52;7.75;;;2.17;;
27622;SDS011;15041;45.334;5.622;2022-07-12T06:42:19;3.08;;;1.95;;
27622;SDS011;15041;45.334;5.622;2022-07-12T06:44:52;7.13;;;2.30;;
27622;SDS011;15041;45.334;5.622;2022-07-12T06:47:20;3.00;;;1.60;;
27622;SDS011;15041;45.334;5.622;2022-07-12T06:49:47;1.75;;;1.65;;
27622;SDS011;15041;45.334;5.622;2022-07-12T06:52:14;2.50;;;1.67;;
27622;SDS011;15041;45.334;5.622;2022-07-12T06:54:41;4.55;;;1.58;;
27622;SDS011;15041;45.334;5.622;2022-07-12T06:57:08;9.63;;;1.92;;
27622;SDS011;15041;45.334;5.622;2022-07-12T06:59:35;3.22;;;1.40;;
27622;SDS011;15041;45.334;5.622;2022-07-12T07:02:02;2.88;;;1.40;;
27622;SDS011;15041;45.334;5.622;2022-07-12T07:04:30;1.92;;;1.65;;
27622;SDS011;15041;45.334;5.622;2022-07-12T07:06:57;7.80;;;1.75;;
27622;SDS011;15041;45.334;5.622;2022-07-12T07:09:24;1.67;;;1.50;;
27622;SDS011;15041;45.334;5.622;2022-07-12T07:11:51;3.53;;;1.65;;
27622;SDS011;15041;45.334;5.622;2022-07-12T07:14:18;6.50;;;1.65;;
27622;SDS011;15041;45.334;5.622;2022-07-12T07:16:45;6.60;;;2.17;;
27622;SDS011;15041;45.334;5.622;2022-07-12T07:19:12;19.15;;;2.05;;
27622;SDS011;15041;45.334;5.622;2022-07-12T07:21:40;5.85;;;2.22;;
27622;SDS011;15041;45.334;5.622;2022-07-12T07:24:07;41.13;;;4.75;;
27622;SDS011;15041;45.334;5.622;2022-07-12T07:26:34;48.20;;;4.70;;
27622;SDS011;15041;45.334;5.622;2022-07-12T07:29:01;34.00;;;4.80;;
27622;SDS011;15041;45.334;5.622;2022-07-12T07:31:46;34.17;;;4.47;;
27622;SDS011;15041;45.334;5.622;2022-07-12T07:34:13;38.65;;;3.58;;
27622;SDS011;15041;45.334;5.622;2022-07-12T07:36:41;28.83;;;4.65;;
27622;SDS011;15041;45.334;5.622;2022-07-12T07:39:07;23.58;;;4.22;;
27622;SDS011;15041;45.334;5.622;2022-07-12T07:41:34;22.90;;;3.30;;
27622;SDS011;15041;45.334;5.622;2022-07-12T07:44:01;16.73;;;2.95;;
27622;SDS011;15041;45.334;5.622;2022-07-12T07:46:28;18.27;;;3.15;;
27622;SDS011;15041;45.334;5.622;2022-07-12T07:48:55;8.27;;;2.10;;
27622;SDS011;15041;45.334;5.622;2022-07-12T07:51:22;17.67;;;2.40;;
27622;SDS011;15041;45.334;5.622;2022-07-12T07:53:50;2.55;;;1.75;;
27622;SDS011;15041;45.334;5.622;2022-07-12T07:56:17;15.40;;;2.10;;
27622;SDS011;15041;45.334;5.622;2022-07-12T07:58:43;5.50;;;1.88;;
27622;SDS011;15041;45.334;5.622;2022-07-12T08:01:10;6.85;;;1.80;;
27622;SDS011;15041;45.334;5.622;2022-07-12T08:03:37;4.28;;;2.38;;
27622;SDS011;15041;45.334;5.622;2022-07-12T08:06:04;5.72;;;1.80;;
27622;SDS011;15041;45.334;5.622;2022-07-12T08:08:31;3.58;;;1.77;;
27622;SDS011;15041;45.334;5.622;2022-07-12T08:10:59;4.75;;;1.90;;
27622;SDS011;15041;45.334;5.622;2022-07-12T08:13:26;7.32;;;1.70;;
27622;SDS011;15041;45.334;5.622;2022-07-12T08:15:53;4.53;;;1.75;;
27622;SDS011;15041;45.334;5.622;2022-07-12T08:18:20;4.05;;;1.40;;
27622;SDS011;15041;45.334;5.622;2022-07-12T08:20:46;6.53;;;1.88;;
27622;SDS011;15041;45.334;5.622;2022-07-12T08:23:13;8.07;;;1.67;;
27622;SDS011;15041;45.334;5.622;2022-07-12T08:25:40;1.40;;;1.30;;
27622;SDS011;15041;45.334;5.622;2022-07-12T08:28:08;5.47;;;1.50;;
27622;SDS011;15041;45.334;5.622;2022-07-12T08:30:35;1.30;;;1.20;;
27622;SDS011;15041;45.334;5.622;2022-07-12T08:33:02;22.20;;;1.63;;
27622;SDS011;15041;45.334;5.622;2022-07-12T08:35:29;6.70;;;1.90;;
27622;SDS011;15041;45.334;5.622;2022-07-12T08:37:55;8.57;;;2.03;;
27622;SDS011;15041;45.334;5.622;2022-07-12T08:40:22;8.77;;;2.53;;
27622;SDS011;15041;45.334;5.622;2022-07-12T08:42:49;13.20;;;1.95;;
27622;SDS011;15041;45.334;5.622;2022-07-12T08:45:17;9.60;;;2.40;;
27622;SDS011;15041;45.334;5.622;2022-07-12T08:47:44;9.70;;;2.15;;
27622;SDS011;15041;45.334;5.622;2022-07-12T08:50:12;9.98;;;3.75;;
27622;SDS011;15041;45.334;5.622;2022-07-12T08:52:40;25.80;;;2.78;;
27622;SDS011;15041;45.334;5.622;2022-07-12T08:55:15;28.80;;;3.55;;
27622;SDS011;15041;45.334;5.622;2022-07-12T08:57:43;15.75;;;2.85;;
27622;SDS011;15041;45.334;5.622;2022-07-12T09:00:11;26.33;;;3.17;;
27622;SDS011;15041;45.334;5.622;2022-07-12T09:02:46;17.27;;;2.25;;
27622;SDS011;15041;45.334;5.622;2022-07-12T09:05:14;9.38;;;1.83;;
27622;SDS011;15041;45.334;5.622;2022-07-12T09:07:42;14.10;;;2.15;;
27622;SDS011;15041;45.334;5.622;2022-07-12T09:10:10;8.90;;;1.73;;
27622;SDS011;15041;45.334;5.622;2022-07-12T09:12:38;9.68;;;2.20;;
27622;SDS011;15041;45.334;5.622;2022-07-12T09:15:10;16.27;;;3.15;;
27622;SDS011;15041;45.334;5.622;2022-07-12T09:17:37;15.05;;;2.30;;
27622;SDS011;15041;45.334;5.622;2022-07-12T09:20:06;12.77;;;2.35;;
27622;SDS011;15041;45.334;5.622;2022-07-12T09:22:36;6.35;;;2.30;;
27622;SDS011;15041;45.334;5.622;2022-07-12T09:25:08;18.95;;;2.60;;
27622;SDS011;15041;45.334;5.622;2022-07-12T09:27:35;19.65;;;2.97;;
27622;SDS011;15041;45.334;5.622;2022-07-12T09:30:02;27.60;;;3.17;;
27622;SDS011;15041;45.334;5.622;2022-07-12T09:32:30;24.63;;;2.53;;
27622;SDS011;15041;45.334;5.622;2022-07-12T09:35:15;15.95;;;2.53;;
27622;SDS011;15041;45.334;5.622;2022-07-12T09:38:07;13.88;;;2.42;;
27622;SDS011;15041;45.334;5.622;2022-07-12T09:40:34;10.23;;;2.17;;
27622;SDS011;15041;45.334;5.622;2022-07-12T09:43:01;11.35;;;2.08;;
27622;SDS011;15041;45.334;5.622;2022-07-12T09:45:31;14.55;;;2.28;;
27622;SDS011;15041;45.334;5.622;2022-07-12T09:47:58;30.88;;;3.72;;
27622;SDS011;15041;45.334;5.622;2022-07-12T09:50:27;22.67;;;3.33;;
27622;SDS011;15041;45.334;5.622;2022-07-12T09:52:57;8.40;;;1.58;;
27622;SDS011;15041;45.334;5.622;2022-07-12T09:55:26;10.65;;;2.10;;
27622;SDS011;15041;45.334;5.622;2022-07-12T09:57:56;8.38;;;1.88;;
27622;SDS011;15041;45.334;5.622;2022-07-12T10:00:27;6.57;;;1.77;;
27622;SDS011;15041;45.334;5.622;2022-07-12T10:02:54;7.78;;;1.77;;
27622;SDS011;15041;45.334;5.622;2022-07-12T10:05:22;4.75;;;1.33;;
27622;SDS011;15041;45.334;5.622;2022-07-12T10:07:52;4.22;;;1.23;;
27622;SDS011;15041;45.334;5.622;2022-07-12T10:10:19;2.30;;;1.15;;
27622;SDS011;15041;45.334;5.622;2022-07-12T10:12:46;1.83;;;1.15;;
27622;SDS011;15041;45.334;5.622;2022-07-12T10:15:14;1.30;;;1.20;;
27622;SDS011;15041;45.334;5.622;2022-07-12T10:17:44;1.15;;;1.10;;
27622;SDS011;15041;45.334;5.622;2022-07-12T10:20:19;3.72;;;1.52;;
27622;SDS011;15041;45.334;5.622;2022-07-12T10:22:48;1.30;;;1.20;;
27622;SDS011;15041;45.334;5.622;2022-07-12T10:27:59;3.22;;;1.33;;
27622;SDS011;15041;45.334;5.622;2022-07-12T10:30:27;1.52;;;0.93;;
27622;SDS011;15041;45.334;5.622;2022-07-12T10:32:54;1.67;;;1.25;;
27622;SDS011;15041;45.334;5.622;2022-07-12T10:35:25;3.63;;;1.13;;
27622;SDS011;15041;45.334;5.622;2022-07-12T10:40:44;1.00;;;1.00;;
27622;SDS011;15041;45.334;5.622;2022-07-12T10:43:12;1.50;;;1.00;;
27622;SDS011;15041;45.334;5.622;2022-07-12T10:45:44;3.45;;;1.25;;
27622;SDS011;15041;45.334;5.622;2022-07-12T10:48:22;1.85;;;1.48;;
27622;SDS011;15041;45.334;5.622;2022-07-12T10:50:54;1.75;;;1.40;;
27622;SDS011;15041;45.334;5.622;2022-07-12T10:53:28;1.02;;;1.00;;
27622;SDS011;15041;45.334;5.622;2022-07-12T10:56:15;3.45;;;1.10;;
27622;SDS011;15041;45.334;5.622;2022-07-12T10:58:45;2.50;;;1.20;;
27622;SDS011;15041;45.334;5.622;2022-07-12T11:01:14;1.20;;;1.08;;
27622;SDS011;15041;45.334;5.622;2022-07-12T11:03:42;1.30;;;1.20;;
27622;SDS011;15041;45.334;5.622;2022-07-12T11:06:11;3.33;;;1.30;;
27622;SDS011;15041;45.334;5.622;2022-07-12T11:08:49;3.20;;;1.17;;
27622;SDS011;15041;45.334;5.622;2022-07-12T11:11:23;3.83;;;1.50;;
27622;SDS011;15041;45.334;5.622;2022-07-12T11:13:51;1.00;;;1.00;;
27622;SDS011;15041;45.334;5.622;2022-07-12T11:16:19;3.42;;;1.23;;
27622;SDS011;15041;45.334;5.622;2022-07-12T11:18:47;1.40;;;1.27;;
27622;SDS011;15041;45.334;5.622;2022-07-12T11:21:14;2.45;;;1.40;;
27622;SDS011;15041;45.334;5.622;2022-07-12T11:23:41;1.35;;;1.20;;
27622;SDS011;15041;45.334;5.622;2022-07-12T11:26:08;2.65;;;1.15;;
27622;SDS011;15041;45.334;5.622;2022-07-12T11:28:37;1.65;;;1.10;;
27622;SDS011;15041;45.334;5.622;2022-07-12T11:31:05;1.23;;;0.90;;
27622;SDS011;15041;45.334;5.622;2022-07-12T11:33:34;1.70;;;0.93;;
27622;SDS011;15041;45.334;5.622;2022-07-12T11:36:03;3.90;;;1.38;;
27622;SDS011;15041;45.334;5.622;2022-07-12T11:38:31;2.78;;;1.20;;
27622;SDS011;15041;45.334;5.622;2022-07-12T11:41:00;1.00;;;1.00;;
27622;SDS011;15041;45.334;5.622;2022-07-12T11:43:28;1.63;;;1.40;;
27622;SDS011;15041;45.334;5.622;2022-07-12T11:45:57;2.38;;;1.20;;
27622;SDS011;15041;45.334;5.622;2022-07-12T11:48:24;0.93;;;0.93;;
27622;SDS011;15041;45.334;5.622;2022-07-12T11:50:51;8.23;;;1.10;;
27622;SDS011;15041;45.334;5.622;2022-07-12T11:53:20;2.15;;;1.23;;
27622;SDS011;15041;45.334;5.622;2022-07-12T11:55:48;1.35;;;1.10;;
27622;SDS011;15041;45.334;5.622;2022-07-12T11:58:16;2.42;;;1.30;;
27622;SDS011;15041;45.334;5.622;2022-07-12T12:00:44;4.07;;;1.23;;
27622;SDS011;15041;45.334;5.622;2022-07-12T12:03:14;1.20;;;1.10;;
27622;SDS011;15041;45.334;5.622;2022-07-12T12:05:42;3.70;;;1.15;;
27622;SDS011;15041;45.334;5.622;2022-07-12T12:08:12;3.13;;;1.13;;
27622;SDS011;15041;45.334;5.622;2022-07-12T12:10:40;2.95;;;1.30;;
27622;SDS011;15041;45.334;5.622;2022-07-12T12:13:12;1.48;;;1.38;;
27622;SDS011;15041;45.334;5.622;2022-07-12T12:15:40;2.90;;;1.00;;
27622;SDS011;15041;45.334;5.622;2022-07-12T12:18:07;4.40;;;1.25;;
27622;SDS011;15041;45.334;5.622;2022-07-12T12:20:36;1.48;;;1.10;;
27622;SDS011;15041;45.334;5.622;2022-07-12T12:23:04;3.60;;;1.20;;
27622;SDS011;15041;45.334;5.622;2022-07-12T12:25:33;1.15;;;1.10;;
27622;SDS011;15041;45.334;5.622;2022-07-12T12:28:02;1.95;;;1.00;;
27622;SDS011;15041;45.334;5.622;2022-07-12T12:30:30;1.20;;;1.10;;
27622;SDS011;15041;45.334;5.622;2022-07-12T12:32:59;1.20;;;1.10;;
27622;SDS011;15041;45.334;5.622;2022-07-12T12:35:29;3.15;;;1.38;;
27622;SDS011;15041;45.334;5.622;2022-07-12T12:37:59;1.05;;;1.05;;
27622;SDS011;15041;45.334;5.622;2022-07-12T12:40:28;1.40;;;1.30;;
27622;SDS011;15041;45.334;5.622;2022-07-12T12:43:04;1.48;;;1.02;;
27622;SDS011;15041;45.334;5.622;2022-07-12T12:45:32;3.03;;;1.15;;
27622;SDS011;15041;45.334;5.622;2022-07-12T12:48:00;1.30;;;1.20;;
27622;SDS011;15041;45.334;5.622;2022-07-12T12:50:35;1.75;;;1.30;;
27622;SDS011;15041;45.334;5.622;2022-07-12T12:53:07;2.70;;;1.30;;
27622;SDS011;15041;45.334;5.622;2022-07-12T12:55:36;4.63;;;1.30;;
27622;SDS011;15041;45.334;5.622;2022-07-12T12:58:02;1.13;;;1.02;;
27622;SDS011;15041;45.334;5.622;2022-07-12T13:00:30;3.92;;;1.00;;
27622;SDS011;15041;45.334;5.622;2022-07-12T13:02:57;1.85;;;0.90;;
27622;SDS011;15041;45.334;5.622;2022-07-12T13:05:26;1.30;;;1.20;;
27622;SDS011;15041;45.334;5.622;2022-07-12T13:07:53;7.60;;;0.90;;
27622;SDS011;15041;45.334;5.622;2022-07-12T13:10:21;1.83;;;1.15;;
27622;SDS011;15041;45.334;5.622;2022-07-12T13:12:49;2.50;;;1.00;;
27622;SDS011;15041;45.334;5.622;2022-07-12T13:15:16;8.60;;;1.52;;
27622;SDS011;15041;45.334;5.622;2022-07-12T13:17:44;1.23;;;1.08;;
27622;SDS011;15041;45.334;5.622;2022-07-12T13:20:11;0.90;;;0.90;;
27622;SDS011;15041;45.334;5.622;2022-07-12T13:22:38;2.22;;;1.20;;
27622;SDS011;15041;45.334;5.622;2022-07-12T13:25:06;1.20;;;1.10;;
27622;SDS011;15041;45.334;5.622;2022-07-12T13:27:36;0.90;;;0.90;;
27622;SDS011;15041;45.334;5.622;2022-07-12T13:30:03;3.15;;;1.10;;
27622;SDS011;15041;45.334;5.622;2022-07-12T13:32:32;1.50;;;1.15;;
27622;SDS011;15041;45.334;5.622;2022-07-12T13:34:59;1.77;;;0.80;;
27622;SDS011;15041;45.334;5.622;2022-07-12T13:37:26;1.05;;;0.85;;
27622;SDS011;15041;45.334;5.622;2022-07-12T13:39:53;0.90;;;0.90;;
27622;SDS011;15041;45.334;5.622;2022-07-12T13:42:44;1.23;;;1.13;;
27622;SDS011;15041;45.334;5.622;2022-07-12T13:45:12;0.90;;;0.90;;
27622;SDS011;15041;45.334;5.622;2022-07-12T13:47:40;4.90;;;0.90;;
27622;SDS011;15041;45.334;5.622;2022-07-12T13:50:08;1.20;;;1.00;;
27622;SDS011;15041;45.334;5.622;2022-07-12T13:52:36;1.65;;;1.08;;
27622;SDS011;15041;45.334;5.622;2022-07-12T13:55:03;7.68;;;0.80;;
27622;SDS011;15041;45.334;5.622;2022-07-12T13:57:31;1.35;;;1.20;;
27622;SDS011;15041;45.334;5.622;2022-07-12T13:59:59;2.03;;;0.98;;
27622;SDS011;15041;45.334;5.622;2022-07-12T14:02:26;3.53;;;1.00;;
27622;SDS011;15041;45.334;5.622;2022-07-12T14:04:53;1.55;;;0.90;;
27622;SDS011;15041;45.334;5.622;2022-07-12T14:07:21;1.60;;;1.00;;
27622;SDS011;15041;45.334;5.622;2022-07-12T14:09:48;2.75;;;1.00;;
27622;SDS011;15041;45.334;5.622;2022-07-12T14:12:14;4.00;;;1.02;;
27622;SDS011;15041;45.334;5.622;2022-07-12T14:14:41;1.58;;;1.23;;
27622;SDS011;15041;45.334;5.622;2022-07-12T14:17:27;1.95;;;1.08;;
27622;SDS011;15041;45.334;5.622;2022-07-12T14:19:53;4.22;;;1.15;;
27622;SDS011;15041;45.334;5.622;2022-07-12T14:22:21;2.35;;;1.10;;
27622;SDS011;15041;45.334;5.622;2022-07-12T14:24:48;3.92;;;1.13;;
27622;SDS011;15041;45.334;5.622;2022-07-12T14:27:14;2.88;;;1.45;;
27622;SDS011;15041;45.334;5.622;2022-07-12T14:29:41;3.42;;;1.27;;
27622;SDS011;15041;45.334;5.622;2022-07-12T14:32:08;3.40;;;1.27;;
27622;SDS011;15041;45.334;5.622;2022-07-12T14:34:37;2.63;;;1.05;;
27622;SDS011;15041;45.334;5.622;2022-07-12T14:37:04;3.00;;;1.00;;
27622;SDS011;15041;45.334;5.622;2022-07-12T14:39:31;2.95;;;1.00;;
27622;SDS011;15041;45.334;5.622;2022-07-12T14:41:58;1.35;;;0.88;;
27622;SDS011;15041;45.334;5.622;2022-07-12T14:44:25;5.28;;;1.25;;
27622;SDS011;15041;45.334;5.622;2022-07-12T14:46:52;2.25;;;1.20;;
27622;SDS011;15041;45.334;5.622;2022-07-12T14:49:20;4.93;;;1.35;;
27622;SDS011;15041;45.334;5.622;2022-07-12T14:51:48;3.17;;;1.30;;
27622;SDS011;15041;45.334;5.622;2022-07-12T14:54:15;1.80;;;1.02;;
27622;SDS011;15041;45.334;5.622;2022-07-12T14:56:42;7.60;;;1.27;;